createdAt,value
2019-03-11T18:04:19.388Z,99998.08
2019-03-11T18:06:50.727Z,100004.02
2019-03-11T18:09:22.290Z,100003.78
2019-03-11T18:11:54.249Z,100006.23
2019-03-11T18:14:26.111Z,100008.67
2019-03-11T18:16:57.669Z,100014.64
2019-03-11T18:19:29.329Z,100014.94
2019-03-11T18:22:00.844Z,100025.23
2019-03-11T18:24:32.644Z,100030.98
2019-03-11T18:27:05.532Z,100044.81
2019-03-11T18:29:37.328Z,100039.95
2019-03-11T18:32:08.771Z,100058.38
2019-03-11T18:34:40.322Z,100056.53
2019-03-11T18:37:11.801Z,100054.91
2019-03-11T18:39:43.407Z,100069.30
2019-03-11T18:42:24.898Z,100077.72
2019-03-11T18:44:48.506Z,100070.16
2019-03-11T18:47:20.240Z,100077.75
2019-03-11T18:49:52.000Z,100084.26
2019-03-11T18:52:23.440Z,100085.91
2019-03-11T18:54:55.102Z,100092.94
2019-03-11T18:57:26.861Z,100095.69
2019-03-11T19:00:46.510Z,100110.10
2019-03-11T19:03:17.925Z,100114.09
2019-03-11T19:05:49.604Z,100117.45
2019-03-11T19:08:21.313Z,100121.75
2019-03-11T19:10:52.932Z,100130.04
2019-03-11T19:13:24.675Z,100133.82
2019-03-11T19:15:56.058Z,100134.25
2019-03-11T19:18:27.568Z,100139.83
2019-03-11T19:20:59.224Z,100142.77
2019-03-11T19:23:30.912Z,100139.48
2019-03-11T19:26:02.437Z,100138.97
2019-03-11T19:28:35.159Z,100147.52
2019-03-11T19:31:06.726Z,100152.59
2019-03-11T19:33:38.276Z,100158.83
2019-03-11T19:36:09.987Z,100154.34
2019-03-11T19:38:41.966Z,100157.91
2019-03-11T19:41:13.613Z,100165.77
2019-03-11T19:43:45.397Z,100169.12
2019-03-11T19:46:16.873Z,100167.55
2019-03-11T19:48:48.420Z,100176.02
2019-03-11T19:51:19.873Z,100176.84
2019-03-11T19:53:51.525Z,100185.67
2019-03-11T19:56:23.185Z,100183.54
2019-03-11T19:58:54.704Z,100183.80
2019-03-11T20:01:26.206Z,100196.55
2019-03-11T20:03:57.830Z,100204.73
2019-03-11T20:06:29.200Z,100201.41
2019-03-11T20:09:00.825Z,100206.30
2019-03-11T20:11:34.093Z,100219.41
2019-03-11T20:14:05.680Z,100225.59
2019-03-11T20:16:37.230Z,100226.52
2019-03-11T20:19:08.700Z,100216.16
2019-03-11T20:21:40.347Z,100228.03
2019-03-11T20:24:11.942Z,100221.58
2019-03-11T20:26:44.397Z,100225.38
2019-03-11T20:29:16.092Z,100229.50
2019-03-11T20:31:47.801Z,100241.44
2019-03-11T20:34:19.396Z,100240.27
2019-03-11T20:36:51.041Z,100241.43
2019-03-11T20:39:22.497Z,100235.69
2019-03-11T20:41:54.116Z,100236.72
2019-03-11T20:44:25.736Z,100235.25
2019-03-11T20:46:57.264Z,100231.19
2019-03-11T20:49:28.929Z,100232.54
2019-03-11T20:52:00.523Z,100241.71
2019-03-11T20:54:31.893Z,100245.39
2019-03-11T20:57:03.454Z,100243.13
2019-03-11T20:59:35.177Z,100254.90
2019-03-11T21:02:06.683Z,100248.16
2019-03-11T21:04:38.020Z,100259.32
2019-03-11T21:07:09.680Z,100253.38
2019-03-11T21:09:41.048Z,100255.41
2019-03-11T21:12:12.393Z,100251.52
2019-03-11T21:14:44.049Z,100257.00
2019-03-11T21:17:25.243Z,100266.03
2019-03-11T21:19:49.245Z,100269.51
2019-03-11T21:22:20.846Z,100271.79
2019-03-11T21:24:59.498Z,100279.70
2019-03-11T21:27:25.540Z,100284.01
2019-03-11T21:29:57.055Z,100280.75
2019-03-11T21:32:28.713Z,100284.16
2019-03-11T21:35:01.531Z,100297.07
2019-03-11T21:37:33.961Z,100287.16
2019-03-11T21:40:09.210Z,100277.53
2019-03-11T21:42:40.595Z,100274.50
2019-03-11T21:45:13.651Z,100281.87
2019-03-11T21:47:45.045Z,100281.40
2019-03-11T21:50:24.264Z,100276.34
2019-03-11T21:52:55.578Z,100277.64
2019-03-11T21:55:27.056Z,100290.38
2019-03-11T21:57:58.708Z,100297.09
2019-03-11T22:00:34.475Z,100294.77
2019-03-11T22:03:03.092Z,100307.31
2019-03-11T22:05:34.689Z,100302.28
2019-03-11T22:08:06.349Z,100302.16
2019-03-11T22:10:37.653Z,100304.66
2019-03-11T22:13:09.252Z,100307.14
2019-03-11T22:15:40.905Z,100301.78
2019-03-11T22:18:12.564Z,100326.16
2019-03-11T22:20:43.974Z,100352.76
2019-03-11T22:23:15.675Z,100365.55
2019-03-11T22:25:47.131Z,100370.62
2019-03-11T22:28:18.786Z,100383.55
2019-03-11T22:30:50.447Z,100385.22
2019-03-11T22:33:22.111Z,100382.92
2019-03-11T22:35:53.558Z,100381.48
2019-03-11T22:38:25.111Z,100381.77
2019-03-11T22:40:56.778Z,100388.22
2019-03-11T22:43:28.315Z,100383.82
2019-03-11T22:46:00.191Z,100396.49
2019-03-11T22:48:31.745Z,100403.57
2019-03-11T22:51:04.334Z,100414.83
2019-03-11T22:53:35.876Z,100413.13
2019-03-11T22:56:07.336Z,100403.02
2019-03-11T22:58:39.101Z,100405.52
2019-03-11T23:01:10.646Z,100398.80
2019-03-11T23:03:50.456Z,100398.25
2019-03-11T23:06:16.938Z,100406.24
2019-03-11T23:08:48.588Z,100416.31
2019-03-11T23:11:20.040Z,100406.06
2019-03-11T23:13:51.696Z,100415.73
2019-03-11T23:16:24.785Z,100413.16
2019-03-11T23:18:56.446Z,100412.48
2019-03-11T23:21:27.902Z,100426.55
2019-03-11T23:23:59.558Z,100430.16
2019-03-11T23:26:31.012Z,100431.38
2019-03-11T23:29:02.564Z,100437.87
2019-03-11T23:31:34.118Z,100443.98
2019-03-11T23:34:06.800Z,100444.74
2019-03-11T23:36:38.364Z,100450.31
2019-03-11T23:39:10.020Z,100450.51
2019-03-11T23:41:41.395Z,100450.12
2019-03-11T23:44:13.127Z,100454.58
2019-03-11T23:46:44.579Z,100460.70
2019-03-11T23:49:16.138Z,100463.85
2019-03-11T23:51:47.689Z,100465.91
2019-03-11T23:54:19.042Z,100463.85
2019-03-11T23:56:50.601Z,100471.11
2019-03-11T23:59:22.258Z,100470.55
